createdAt,value
2023-05-11T00:01:15.850Z,23.85
2023-05-11T00:06:19.872Z,20.88
2023-05-11T00:11:23.643Z,21.83
2023-05-11T00:16:26.338Z,23.50
2023-05-11T00:21:30.409Z,23.33
2023-05-11T00:26:33.049Z,24.20
2023-05-11T00:31:35.812Z,22.20
2023-05-11T00:36:41.304Z,21.77
2023-05-11T00:41:44.543Z,25.40
2023-05-11T00:46:47.667Z,22.08
2023-05-11T00:51:51.730Z,22.92
2023-05-11T00:56:54.396Z,20.67
2023-05-11T01:01:57.189Z,23.85
2023-05-11T01:07:10.512Z,26.17
2023-05-11T01:12:18.535Z,25.80
2023-05-11T01:17:33.755Z,26.17
2023-05-11T01:22:54.009Z,24.75
2023-05-11T01:28:30.517Z,22.95
2023-05-11T01:33:36.734Z,23.15
2023-05-11T01:38:42.068Z,24.45
2023-05-11T01:43:47.436Z,24.13
2023-05-11T01:48:52.625Z,22.52
2023-05-11T01:53:57.382Z,22.08
2023-05-11T01:59:00.427Z,21.10
2023-05-11T02:04:05.058Z,24.33
2023-05-11T02:09:09.466Z,22.45
2023-05-11T02:14:12.724Z,18.20
2023-05-11T02:19:17.264Z,19.90
2023-05-11T02:24:20.461Z,23.85
2023-05-11T02:29:23.204Z,21.13
2023-05-11T02:34:29.942Z,25.15
2023-05-11T02:39:34.624Z,22.98
2023-05-11T02:44:38.482Z,21.23
2023-05-11T02:49:44.130Z,20.65
2023-05-11T02:54:47.740Z,23.27
2023-05-11T02:59:50.747Z,21.77
2023-05-11T03:04:55.220Z,21.80
2023-05-11T03:09:57.930Z,22.92
2023-05-11T03:15:01.815Z,23.13
2023-05-11T03:20:08.991Z,23.58
2023-05-11T03:25:12.404Z,22.73
2023-05-11T03:30:15.723Z,24.35
2023-05-11T03:35:25.065Z,24.58
2023-05-11T03:40:33.282Z,21.55
2023-05-11T03:45:36.732Z,22.02
2023-05-11T03:50:42.776Z,23.55
2023-05-11T03:55:45.510Z,23.17
2023-05-11T04:00:48.278Z,21.02
2023-05-11T04:05:52.379Z,20.98
2023-05-11T04:10:54.998Z,23.45
2023-05-11T04:15:57.674Z,22.13
2023-05-11T04:21:01.866Z,25.25
2023-05-11T04:26:04.572Z,22.88
2023-05-11T04:31:07.183Z,21.85
2023-05-11T04:36:11.303Z,24.48
2023-05-11T04:41:15.050Z,24.88
2023-05-11T04:46:18.437Z,26.17
2023-05-11T04:51:22.439Z,24.60
2023-05-11T04:56:26.343Z,26.42
2023-05-11T05:01:29.228Z,26.95
2023-05-11T05:06:33.755Z,25.90
2023-05-11T05:11:36.389Z,29.65
2023-05-11T05:16:39.059Z,29.83
2023-05-11T05:21:43.062Z,33.00
2023-05-11T05:26:45.714Z,34.70
2023-05-11T05:31:49.222Z,38.20
2023-05-11T05:36:54.373Z,34.90
2023-05-11T05:41:57.280Z,34.17
2023-05-11T05:47:00.900Z,39.28
2023-05-11T05:52:08.526Z,38.78
2023-05-11T05:57:12.777Z,41.38
2023-05-11T06:02:18.729Z,42.53
2023-05-11T06:07:22.784Z,43.17
2023-05-11T06:12:26.357Z,43.30
2023-05-11T06:17:31.791Z,42.17
2023-05-11T06:22:36.033Z,40.25
2023-05-11T06:27:39.766Z,41.05
2023-05-11T06:32:43.676Z,34.63
2023-05-11T06:37:48.479Z,35.20
2023-05-11T06:42:51.909Z,35.65
2023-05-11T06:47:54.573Z,30.80
2023-05-11T06:53:00.217Z,30.17
2023-05-11T06:58:05.240Z,30.38
2023-05-11T07:03:08.000Z,28.42
2023-05-11T07:08:12.057Z,30.20
2023-05-11T07:13:14.792Z,28.00
2023-05-11T07:18:42.923Z,24.35
2023-05-11T07:23:46.948Z,23.50
2023-05-11T07:28:49.605Z,22.92
2023-05-11T07:33:53.173Z,23.73
2023-05-11T07:38:57.772Z,21.42
2023-05-11T07:44:01.509Z,21.02
2023-05-11T07:49:15.752Z,20.77
2023-05-11T07:54:24.688Z,18.38
2023-05-11T07:59:27.373Z,16.00
2023-05-11T08:04:30.350Z,22.08
2023-05-11T08:09:34.310Z,14.88
2023-05-11T08:14:37.705Z,15.02
2023-05-11T08:19:40.301Z,11.70
2023-05-11T08:25:23.399Z,9.35
2023-05-11T08:30:47.342Z,12.80
2023-05-11T08:35:49.956Z,9.70
2023-05-11T08:40:53.945Z,10.50
2023-05-11T08:45:58.948Z,11.95
2023-05-11T08:51:24.392Z,10.60
2023-05-11T08:56:46.537Z,10.23
2023-05-11T09:07:48.501Z,10.48
2023-05-11T09:12:52.447Z,14.73
2023-05-11T09:17:55.244Z,16.83
2023-05-11T09:23:00.587Z,17.73
2023-05-11T09:29:21.897Z,21.58
2023-05-11T09:34:27.214Z,18.60
2023-05-11T09:39:38.074Z,15.98
2023-05-11T09:44:49.157Z,16.58
2023-05-11T09:49:51.785Z,20.60
2023-05-11T09:54:54.373Z,19.27
2023-05-11T09:59:59.151Z,16.60
2023-05-11T10:05:02.619Z,13.25
2023-05-11T10:10:06.731Z,18.00
2023-05-11T10:15:12.098Z,16.27
2023-05-11T10:20:15.162Z,15.43
2023-05-11T10:25:19.313Z,16.92
2023-05-11T10:30:23.599Z,18.05
2023-05-11T10:35:26.352Z,17.42
2023-05-11T10:47:08.692Z,17.92
2023-05-11T10:52:23.365Z,19.05
2023-05-11T10:57:38.458Z,19.98
2023-05-11T11:02:45.216Z,17.83
2023-05-11T11:07:58.677Z,18.17
2023-05-11T11:13:08.610Z,19.98
2023-05-11T11:18:22.233Z,20.17
2023-05-11T11:23:49.550Z,17.30
2023-05-11T11:29:13.761Z,12.75
2023-05-11T11:34:39.239Z,10.27
2023-05-11T11:40:13.906Z,14.77
2023-05-11T11:45:28.815Z,10.63
2023-05-11T11:50:34.380Z,9.23
2023-05-11T11:55:49.998Z,11.45
2023-05-11T12:00:53.142Z,9.52
2023-05-11T12:06:02.249Z,15.02
2023-05-11T12:11:05.463Z,14.20
2023-05-11T12:16:12.196Z,10.73
2023-05-11T12:21:21.909Z,12.73
2023-05-11T12:26:25.828Z,12.95
2023-05-11T12:31:28.556Z,16.85
2023-05-11T12:36:33.047Z,8.98
2023-05-11T12:41:35.904Z,13.38
2023-05-11T12:46:38.653Z,12.73
2023-05-11T12:51:53.805Z,8.55
2023-05-11T12:56:56.573Z,13.40
2023-05-11T13:02:14.699Z,13.90
2023-05-11T13:07:27.463Z,10.45
2023-05-11T13:12:32.246Z,11.25
2023-05-11T13:17:36.540Z,12.35
2023-05-11T13:22:40.663Z,8.95
2023-05-11T13:27:43.618Z,17.63
2023-05-11T13:32:46.280Z,12.23
2023-05-11T13:37:50.252Z,7.50
2023-05-11T13:42:52.955Z,9.50
2023-05-11T13:59:39.148Z,7.63
2023-05-11T14:04:59.383Z,9.93
2023-05-11T14:11:24.443Z,6.93
2023-05-11T14:23:41.670Z,8.20
2023-05-11T14:28:55.042Z,10.88
2023-05-11T14:33:58.122Z,7.97
2023-05-11T14:39:02.663Z,11.52
2023-05-11T14:44:05.788Z,7.82
2023-05-11T14:49:42.237Z,7.10
2023-05-11T14:55:47.622Z,10.02
2023-05-11T15:01:52.468Z,12.80
2023-05-11T15:07:52.336Z,20.60
2023-05-11T15:19:41.986Z,9.20
2023-05-11T15:26:12.218Z,7.22
2023-05-11T15:31:23.353Z,9.32
2023-05-11T15:36:29.728Z,8.75
2023-05-11T15:41:32.611Z,6.30
2023-05-11T15:46:37.095Z,7.68
2023-05-11T15:51:39.953Z,9.23
2023-05-11T15:56:42.857Z,7.35
2023-05-11T16:01:46.880Z,7.30
2023-05-11T16:06:49.540Z,11.93
2023-05-11T16:11:52.154Z,8.13
2023-05-11T16:16:57.368Z,9.63
2023-05-11T16:22:00.026Z,11.30
2023-05-11T16:27:02.788Z,10.25
2023-05-11T16:32:07.235Z,6.15
2023-05-11T16:37:10.144Z,12.68
2023-05-11T16:42:12.794Z,7.47
2023-05-11T16:47:17.350Z,14.23
2023-05-11T16:52:20.588Z,11.25
2023-05-11T16:57:25.012Z,8.53
2023-05-11T17:02:29.014Z,34.47
2023-05-11T17:07:31.829Z,279.45
2023-05-11T17:12:35.516Z,484.60
2023-05-11T17:17:41.093Z,499.50
2023-05-11T17:22:44.159Z,396.33
2023-05-11T17:27:46.740Z,340.75
2023-05-11T17:32:51.920Z,298.92
2023-05-11T17:37:54.839Z,271.58
2023-05-11T17:42:57.551Z,256.58
2023-05-11T17:48:01.577Z,228.38
2023-05-11T17:53:04.252Z,213.20
2023-05-11T17:58:06.984Z,198.23
2023-05-11T18:03:12.109Z,172.10
2023-05-11T18:08:14.912Z,182.15
2023-05-11T18:13:17.818Z,168.68
2023-05-11T18:18:22.584Z,154.57
2023-05-11T18:23:25.300Z,152.27
2023-05-11T18:28:28.187Z,133.15
2023-05-11T18:33:55.026Z,121.32
2023-05-11T18:46:12.404Z,90.07
2023-05-11T19:16:41.867Z,74.00
2023-05-11T19:28:11.064Z,71.43
2023-05-11T19:40:19.306Z,60.20
2023-05-11T19:45:25.793Z,64.25
2023-05-11T20:08:30.588Z,59.20
2023-05-11T20:14:23.123Z,50.97
2023-05-11T20:38:25.995Z,45.63
2023-05-11T20:50:18.123Z,40.22
2023-05-11T20:55:21.586Z,37.55
2023-05-11T21:00:24.675Z,38.55
2023-05-11T21:05:28.979Z,40.70
2023-05-11T21:10:31.946Z,35.10
2023-05-11T21:15:34.660Z,34.85
2023-05-11T21:20:38.723Z,32.75
2023-05-11T21:25:41.441Z,32.90
2023-05-11T21:30:44.225Z,32.70
2023-05-11T21:35:48.900Z,30.88
2023-05-11T21:40:52.610Z,34.33
2023-05-11T21:45:55.245Z,29.52
2023-05-11T21:50:59.232Z,31.80
2023-05-11T21:56:01.809Z,26.58
2023-05-11T22:01:04.520Z,27.55
2023-05-11T22:06:08.934Z,27.00
2023-05-11T22:11:11.556Z,26.13
2023-05-11T22:16:14.310Z,25.83
2023-05-11T22:21:18.313Z,23.75
2023-05-11T22:26:21.037Z,24.70
2023-05-11T22:31:25.384Z,24.48
2023-05-11T22:36:29.600Z,23.50
2023-05-11T22:41:32.544Z,24.65
2023-05-11T22:46:35.147Z,21.75
2023-05-11T22:51:39.131Z,23.50
2023-05-11T22:56:42.943Z,20.30
2023-05-11T23:01:46.229Z,22.27
2023-05-11T23:06:50.276Z,17.38
2023-05-11T23:11:53.051Z,19.23
2023-05-11T23:16:55.697Z,22.27
2023-05-11T23:21:59.725Z,21.50
2023-05-11T23:27:03.333Z,17.67
2023-05-11T23:32:06.467Z,18.63
2023-05-11T23:37:10.593Z,20.88
2023-05-11T23:42:13.195Z,17.85
2023-05-11T23:47:15.890Z,15.77
2023-05-11T23:52:19.906Z,17.77
2023-05-11T23:57:22.540Z,19.08
